sensor_id;sensor_type;location;lat;lon;timestamp;P1;durP1;ratioP1;P2;durP2;ratioP2
48679;SDS011;34475;51.658;5.634;2022-11-11T00:00:00;1.3;;;1.3;;
48679;SDS011;34475;51.658;5.634;2022-11-11T00:01:03;1.3;;;1.3;;
48679;SDS011;34475;51.658;5.634;2022-11-11T00:02:00;1.3;;;1.3;;
48679;SDS011;34475;51.658;5.634;2022-11-11T00:03:00;1.3;;;1.3;;
48679;SDS011;34475;51.658;5.634;2022-11-11T00:04:00;1.3;;;1.3;;
48679;SDS011;34475;51.658;5.634;2022-11-11T00:05:00;1.3;;;1.3;;
48679;SDS011;34475;51.658;5.634;2022-11-11T00:06:03;1.8;;;1.7;;
48679;SDS011;34475;51.658;5.634;2022-11-11T00:07:00;1.8;;;1.7;;
48679;SDS011;34475;51.658;5.634;2022-11-11T00:08:00;1.8;;;1.7;;
48679;SDS011;34475;51.658;5.634;2022-11-11T00:09:00;1.8;;;1.7;;
48679;SDS011;34475;51.658;5.634;2022-11-11T00:10:00;1.8;;;1.7;;
48679;SDS011;34475;51.658;5.634;2022-11-11T00:11:03;1.8;;;1.7;;
48679;SDS011;34475;51.658;5.634;2022-11-11T00:12:00;1.8;;;1.7;;
48679;SDS011;34475;51.658;5.634;2022-11-11T00:13:02;1.8;;;1.7;;
48679;SDS011;34475;51.658;5.634;2022-11-11T00:14:00;1.8;;;1.7;;
48679;SDS011;34475;51.658;5.634;2022-11-11T00:15:00;1.8;;;1.7;;
48679;SDS011;34475;51.658;5.634;2022-11-11T00:16:05;1.8;;;1.7;;
48679;SDS011;34475;51.658;5.634;2022-11-11T00:17:11;1.8;;;1.7;;
48679;SDS011;34475;51.658;5.634;2022-11-11T00:18:10;1.8;;;1.7;;
48679;SDS011;34475;51.658;5.634;2022-11-11T00:19:10;1.8;;;1.7;;
48679;SDS011;34475;51.658;5.634;2022-11-11T00:20:10;1.8;;;1.7;;
48679;SDS011;34475;51.658;5.634;2022-11-11T00:21:12;1.8;;;1.7;;
48679;SDS011;34475;51.658;5.634;2022-11-11T00:22:26;1.8;;;1.7;;
48679;SDS011;34475;51.658;5.634;2022-11-11T00:23:16;1.8;;;1.7;;
48679;SDS011;34475;51.658;5.634;2022-11-11T00:25:08;1.8;;;1.7;;
48679;SDS011;34475;51.658;5.634;2022-11-11T00:26:11;1.2;;;1.2;;
48679;SDS011;34475;51.658;5.634;2022-11-11T00:27:01;1.2;;;1.2;;
48679;SDS011;34475;51.658;5.634;2022-11-11T00:28:00;1.2;;;1.2;;
48679;SDS011;34475;51.658;5.634;2022-11-11T00:29:00;1.2;;;1.2;;
48679;SDS011;34475;51.658;5.634;2022-11-11T00:30:00;1.2;;;1.2;;
48679;SDS011;34475;51.658;5.634;2022-11-11T00:31:03;1.2;;;1.2;;
48679;SDS011;34475;51.658;5.634;2022-11-11T00:32:10;1.2;;;1.2;;
48679;SDS011;34475;51.658;5.634;2022-11-11T00:33:00;1.2;;;1.2;;
48679;SDS011;34475;51.658;5.634;2022-11-11T00:34:00;1.2;;;1.2;;
48679;SDS011;34475;51.658;5.634;2022-11-11T00:35:10;1.2;;;1.2;;
48679;SDS011;34475;51.658;5.634;2022-11-11T00:36:00;1.2;;;1.2;;
48679;SDS011;34475;51.658;5.634;2022-11-11T00:37:00;1.2;;;1.2;;
48679;SDS011;34475;51.658;5.634;2022-11-11T00:38:10;1.2;;;1.2;;
48679;SDS011;34475;51.658;5.634;2022-11-11T00:39:00;1.2;;;1.2;;
48679;SDS011;34475;51.658;5.634;2022-11-11T00:40:00;1.2;;;1.2;;
48679;SDS011;34475;51.658;5.634;2022-11-11T00:41:00;1.2;;;1.2;;
48679;SDS011;34475;51.658;5.634;2022-11-11T00:42:00;1.2;;;1.2;;
48679;SDS011;34475;51.658;5.634;2022-11-11T00:43:00;1.2;;;1.2;;
48679;SDS011;34475;51.658;5.634;2022-11-11T00:44:00;1.2;;;1.2;;
48679;SDS011;34475;51.658;5.634;2022-11-11T00:45:00;1.2;;;1.2;;
48679;SDS011;34475;51.658;5.634;2022-11-11T00:46:10;0.9;;;0.9;;
48679;SDS011;34475;51.658;5.634;2022-11-11T00:47:10;0.9;;;0.9;;
48679;SDS011;34475;51.658;5.634;2022-11-11T00:48:10;0.9;;;0.9;;
48679;SDS011;34475;51.658;5.634;2022-11-11T00:49:10;0.9;;;0.9;;
48679;SDS011;34475;51.658;5.634;2022-11-11T00:50:11;0.9;;;0.9;;
48679;SDS011;34475;51.658;5.634;2022-11-11T00:51:00;0.9;;;0.9;;
48679;SDS011;34475;51.658;5.634;2022-11-11T00:52:00;0.9;;;0.9;;
48679;SDS011;34475;51.658;5.634;2022-11-11T00:53:02;0.9;;;0.9;;
48679;SDS011;34475;51.658;5.634;2022-11-11T00:54:00;0.9;;;0.9;;
48679;SDS011;34475;51.658;5.634;2022-11-11T00:55:00;0.9;;;0.9;;
48679;SDS011;34475;51.658;5.634;2022-11-11T00:56:00;0.9;;;0.9;;
48679;SDS011;34475;51.658;5.634;2022-11-11T00:57:00;0.9;;;0.9;;
48679;SDS011;34475;51.658;5.634;2022-11-11T00:58:00;0.9;;;0.9;;
48679;SDS011;34475;51.658;5.634;2022-11-11T00:59:00;0.9;;;0.9;;
48679;SDS011;34475;51.658;5.634;2022-11-11T01:00:00;0.9;;;0.9;;
48679;SDS011;34475;51.658;5.634;2022-11-11T01:01:00;0.9;;;0.9;;
48679;SDS011;34475;51.658;5.634;2022-11-11T01:02:00;0.9;;;0.9;;
48679;SDS011;34475;51.658;5.634;2022-11-11T01:03:00;0.9;;;0.9;;
48679;SDS011;34475;51.658;5.634;2022-11-11T01:04:00;0.9;;;0.9;;
48679;SDS011;34475;51.658;5.634;2022-11-11T01:05:00;0.9;;;0.9;;
48679;SDS011;34475;51.658;5.634;2022-11-11T01:06:01;1.0;;;1.0;;
48679;SDS011;34475;51.658;5.634;2022-11-11T01:07:00;1.0;;;1.0;;
48679;SDS011;34475;51.658;5.634;2022-11-11T01:08:00;1.0;;;1.0;;
48679;SDS011;34475;51.658;5.634;2022-11-11T01:09:05;1.0;;;1.0;;
48679;SDS011;34475;51.658;5.634;2022-11-11T01:10:00;1.0;;;1.0;;
48679;SDS011;34475;51.658;5.634;2022-11-11T01:11:00;1.0;;;1.0;;
48679;SDS011;34475;51.658;5.634;2022-11-11T01:12:00;1.0;;;1.0;;
48679;SDS011;34475;51.658;5.634;2022-11-11T01:13:18;1.0;;;1.0;;
48679;SDS011;34475;51.658;5.634;2022-11-11T01:14:00;1.0;;;1.0;;
48679;SDS011;34475;51.658;5.634;2022-11-11T01:15:00;1.0;;;1.0;;
48679;SDS011;34475;51.658;5.634;2022-11-11T01:16:03;1.0;;;1.0;;
48679;SDS011;34475;51.658;5.634;2022-11-11T01:17:00;1.0;;;1.0;;
48679;SDS011;34475;51.658;5.634;2022-11-11T01:18:00;1.0;;;1.0;;
48679;SDS011;34475;51.658;5.634;2022-11-11T01:19:00;1.0;;;1.0;;
48679;SDS011;34475;51.658;5.634;2022-11-11T01:20:00;1.0;;;1.0;;
48679;SDS011;34475;51.658;5.634;2022-11-11T01:22:00;1.0;;;1.0;;
48679;SDS011;34475;51.658;5.634;2022-11-11T01:23:00;1.0;;;1.0;;
48679;SDS011;34475;51.658;5.634;2022-11-11T01:24:00;1.0;;;1.0;;
48679;SDS011;34475;51.658;5.634;2022-11-11T01:25:00;1.0;;;1.0;;
48679;SDS011;34475;51.658;5.634;2022-11-11T01:26:03;1.3;;;1.3;;
48679;SDS011;34475;51.658;5.634;2022-11-11T01:27:00;1.3;;;1.3;;
48679;SDS011;34475;51.658;5.634;2022-11-11T01:28:00;1.3;;;1.3;;
48679;SDS011;34475;51.658;5.634;2022-11-11T01:29:00;1.3;;;1.3;;
48679;SDS011;34475;51.658;5.634;2022-11-11T01:30:00;1.3;;;1.3;;
48679;SDS011;34475;51.658;5.634;2022-11-11T01:31:02;1.3;;;1.3;;
48679;SDS011;34475;51.658;5.634;2022-11-11T01:32:00;1.3;;;1.3;;
48679;SDS011;34475;51.658;5.634;2022-11-11T01:33:01;1.3;;;1.3;;
48679;SDS011;34475;51.658;5.634;2022-11-11T01:34:00;1.3;;;1.3;;
48679;SDS011;34475;51.658;5.634;2022-11-11T01:35:00;1.3;;;1.3;;
48679;SDS011;34475;51.658;5.634;2022-11-11T01:36:02;1.3;;;1.3;;
48679;SDS011;34475;51.658;5.634;2022-11-11T01:37:00;1.3;;;1.3;;
48679;SDS011;34475;51.658;5.634;2022-11-11T01:38:00;1.3;;;1.3;;
48679;SDS011;34475;51.658;5.634;2022-11-11T01:39:00;1.3;;;1.3;;
48679;SDS011;34475;51.658;5.634;2022-11-11T01:40:00;1.3;;;1.3;;
48679;SDS011;34475;51.658;5.634;2022-11-11T01:41:11;1.3;;;1.3;;
48679;SDS011;34475;51.658;5.634;2022-11-11T01:42:02;1.3;;;1.3;;
48679;SDS011;34475;51.658;5.634;2022-11-11T01:45:00;1.3;;;1.3;;
48679;SDS011;34475;51.658;5.634;2022-11-11T01:46:02;1.2;;;1.2;;
48679;SDS011;34475;51.658;5.634;2022-11-11T01:47:03;1.2;;;1.2;;
48679;SDS011;34475;51.658;5.634;2022-11-11T01:49:19;1.2;;;1.2;;
48679;SDS011;34475;51.658;5.634;2022-11-11T01:50:01;1.2;;;1.2;;
48679;SDS011;34475;51.658;5.634;2022-11-11T01:51:01;1.2;;;1.2;;
48679;SDS011;34475;51.658;5.634;2022-11-11T01:52:12;1.2;;;1.2;;
48679;SDS011;34475;51.658;5.634;2022-11-11T01:53:00;1.2;;;1.2;;
48679;SDS011;34475;51.658;5.634;2022-11-11T01:54:04;1.2;;;1.2;;
48679;SDS011;34475;51.658;5.634;2022-11-11T01:55:03;1.2;;;1.2;;
48679;SDS011;34475;51.658;5.634;2022-11-11T01:56:01;1.2;;;1.2;;
48679;SDS011;34475;51.658;5.634;2022-11-11T01:57:10;1.2;;;1.2;;
48679;SDS011;34475;51.658;5.634;2022-11-11T01:58:03;1.2;;;1.2;;
48679;SDS011;34475;51.658;5.634;2022-11-11T01:59:03;1.2;;;1.2;;
48679;SDS011;34475;51.658;5.634;2022-11-11T02:00:10;1.2;;;1.2;;
48679;SDS011;34475;51.658;5.634;2022-11-11T02:01:01;1.2;;;1.2;;
48679;SDS011;34475;51.658;5.634;2022-11-11T02:02:03;1.2;;;1.2;;
48679;SDS011;34475;51.658;5.634;2022-11-11T02:03:04;1.2;;;1.2;;
48679;SDS011;34475;51.658;5.634;2022-11-11T02:04:11;1.2;;;1.2;;
48679;SDS011;34475;51.658;5.634;2022-11-11T02:05:13;1.8;;;1.7;;
48679;SDS011;34475;51.658;5.634;2022-11-11T02:06:00;1.8;;;1.7;;
48679;SDS011;34475;51.658;5.634;2022-11-11T02:07:04;1.8;;;1.7;;
48679;SDS011;34475;51.658;5.634;2022-11-11T02:08:06;1.8;;;1.7;;
48679;SDS011;34475;51.658;5.634;2022-11-11T02:09:02;1.8;;;1.7;;
48679;SDS011;34475;51.658;5.634;2022-11-11T02:10:02;1.8;;;1.7;;
48679;SDS011;34475;51.658;5.634;2022-11-11T02:11:06;1.8;;;1.7;;
48679;SDS011;34475;51.658;5.634;2022-11-11T02:12:12;1.8;;;1.7;;
48679;SDS011;34475;51.658;5.634;2022-11-11T02:13:11;1.8;;;1.7;;
48679;SDS011;34475;51.658;5.634;2022-11-11T02:14:10;1.8;;;1.7;;
48679;SDS011;34475;51.658;5.634;2022-11-11T02:15:00;1.8;;;1.7;;
48679;SDS011;34475;51.658;5.634;2022-11-11T02:16:00;1.8;;;1.7;;
48679;SDS011;34475;51.658;5.634;2022-11-11T02:17:01;1.8;;;1.7;;
48679;SDS011;34475;51.658;5.634;2022-11-11T02:18:00;1.8;;;1.7;;
48679;SDS011;34475;51.658;5.634;2022-11-11T02:19:00;1.8;;;1.7;;
48679;SDS011;34475;51.658;5.634;2022-11-11T02:20:02;1.8;;;1.7;;
48679;SDS011;34475;51.658;5.634;2022-11-11T02:21:00;1.8;;;1.7;;
48679;SDS011;34475;51.658;5.634;2022-11-11T02:22:01;1.8;;;1.7;;
48679;SDS011;34475;51.658;5.634;2022-11-11T02:24:02;1.8;;;1.7;;
48679;SDS011;34475;51.658;5.634;2022-11-11T02:25:01;1.3;;;1.3;;
48679;SDS011;34475;51.658;5.634;2022-11-11T02:26:02;1.3;;;1.3;;
48679;SDS011;34475;51.658;5.634;2022-11-11T02:27:01;1.3;;;1.3;;
48679;SDS011;34475;51.658;5.634;2022-11-11T02:28:03;1.3;;;1.3;;
48679;SDS011;34475;51.658;5.634;2022-11-11T02:29:02;1.3;;;1.3;;
48679;SDS011;34475;51.658;5.634;2022-11-11T02:30:01;1.3;;;1.3;;
48679;SDS011;34475;51.658;5.634;2022-11-11T02:31:00;1.3;;;1.3;;
48679;SDS011;34475;51.658;5.634;2022-11-11T02:32:00;1.3;;;1.3;;
48679;SDS011;34475;51.658;5.634;2022-11-11T02:33:00;1.3;;;1.3;;
48679;SDS011;34475;51.658;5.634;2022-11-11T02:34:00;1.3;;;1.3;;
48679;SDS011;34475;51.658;5.634;2022-11-11T02:35:00;1.3;;;1.3;;
48679;SDS011;34475;51.658;5.634;2022-11-11T02:36:01;1.3;;;1.3;;
48679;SDS011;34475;51.658;5.634;2022-11-11T02:37:02;1.3;;;1.3;;
48679;SDS011;34475;51.658;5.634;2022-11-11T02:38:10;1.3;;;1.3;;
48679;SDS011;34475;51.658;5.634;2022-11-11T02:39:00;1.3;;;1.3;;
48679;SDS011;34475;51.658;5.634;2022-11-11T02:40:07;1.3;;;1.3;;
48679;SDS011;34475;51.658;5.634;2022-11-11T02:41:10;1.3;;;1.3;;
48679;SDS011;34475;51.658;5.634;2022-11-11T02:42:03;1.3;;;1.3;;
48679;SDS011;34475;51.658;5.634;2022-11-11T02:43:00;1.3;;;1.3;;
48679;SDS011;34475;51.658;5.634;2022-11-11T02:44:00;1.3;;;1.3;;
48679;SDS011;34475;51.658;5.634;2022-11-11T02:45:00;1.0;;;1.0;;
48679;SDS011;34475;51.658;5.634;2022-11-11T02:46:02;1.0;;;1.0;;
48679;SDS011;34475;51.658;5.634;2022-11-11T02:47:00;1.0;;;1.0;;
48679;SDS011;34475;51.658;5.634;2022-11-11T02:48:00;1.0;;;1.0;;
48679;SDS011;34475;51.658;5.634;2022-11-11T02:49:00;1.0;;;1.0;;
48679;SDS011;34475;51.658;5.634;2022-11-11T02:50:00;1.0;;;1.0;;
48679;SDS011;34475;51.658;5.634;2022-11-11T02:51:00;1.0;;;1.0;;
48679;SDS011;34475;51.658;5.634;2022-11-11T02:52:00;1.0;;;1.0;;
48679;SDS011;34475;51.658;5.634;2022-11-11T02:53:00;1.0;;;1.0;;
48679;SDS011;34475;51.658;5.634;2022-11-11T02:54:02;1.0;;;1.0;;
48679;SDS011;34475;51.658;5.634;2022-11-11T02:55:01;1.0;;;1.0;;
48679;SDS011;34475;51.658;5.634;2022-11-11T02:56:00;1.0;;;1.0;;
48679;SDS011;34475;51.658;5.634;2022-11-11T02:57:07;1.0;;;1.0;;
48679;SDS011;34475;51.658;5.634;2022-11-11T02:58:00;1.0;;;1.0;;
48679;SDS011;34475;51.658;5.634;2022-11-11T02:59:00;1.0;;;1.0;;
48679;SDS011;34475;51.658;5.634;2022-11-11T03:00:01;1.0;;;1.0;;
48679;SDS011;34475;51.658;5.634;2022-11-11T03:01:00;1.0;;;1.0;;
48679;SDS011;34475;51.658;5.634;2022-11-11T03:02:00;1.0;;;1.0;;
48679;SDS011;34475;51.658;5.634;2022-11-11T03:03:00;1.0;;;1.0;;
48679;SDS011;34475;51.658;5.634;2022-11-11T03:04:00;1.0;;;1.0;;
48679;SDS011;34475;51.658;5.634;2022-11-11T03:05:00;1.6;;;1.5;;
48679;SDS011;34475;51.658;5.634;2022-11-11T03:06:00;1.6;;;1.5;;
48679;SDS011;34475;51.658;5.634;2022-11-11T03:07:00;1.6;;;1.5;;
48679;SDS011;34475;51.658;5.634;2022-11-11T03:08:00;1.6;;;1.5;;
48679;SDS011;34475;51.658;5.634;2022-11-11T03:09:00;1.6;;;1.5;;
48679;SDS011;34475;51.658;5.634;2022-11-11T03:10:00;1.6;;;1.5;;
48679;SDS011;34475;51.658;5.634;2022-11-11T03:11:00;1.6;;;1.5;;
48679;SDS011;34475;51.658;5.634;2022-11-11T03:12:00;1.6;;;1.5;;
48679;SDS011;34475;51.658;5.634;2022-11-11T03:13:00;1.6;;;1.5;;
48679;SDS011;34475;51.658;5.634;2022-11-11T03:14:00;1.6;;;1.5;;
48679;SDS011;34475;51.658;5.634;2022-11-11T03:15:00;1.6;;;1.5;;
48679;SDS011;34475;51.658;5.634;2022-11-11T03:16:00;1.6;;;1.5;;
48679;SDS011;34475;51.658;5.634;2022-11-11T03:17:10;1.6;;;1.5;;
48679;SDS011;34475;51.658;5.634;2022-11-11T03:18:00;1.6;;;1.5;;
48679;SDS011;34475;51.658;5.634;2022-11-11T03:19:00;1.6;;;1.5;;
48679;SDS011;34475;51.658;5.634;2022-11-11T03:20:11;1.6;;;1.5;;
48679;SDS011;34475;51.658;5.634;2022-11-11T03:21:07;1.6;;;1.5;;
48679;SDS011;34475;51.658;5.634;2022-11-11T03:22:10;1.6;;;1.5;;
48679;SDS011;34475;51.658;5.634;2022-11-11T03:23:01;1.6;;;1.5;;
48679;SDS011;34475;51.658;5.634;2022-11-11T03:24:00;1.6;;;1.5;;
48679;SDS011;34475;51.658;5.634;2022-11-11T03:25:10;0.8;;;0.8;;
48679;SDS011;34475;51.658;5.634;2022-11-11T03:26:00;0.8;;;0.8;;
48679;SDS011;34475;51.658;5.634;2022-11-11T03:27:00;0.8;;;0.8;;
48679;SDS011;34475;51.658;5.634;2022-11-11T03:28:00;0.8;;;0.8;;
48679;SDS011;34475;51.658;5.634;2022-11-11T03:29:00;0.8;;;0.8;;
48679;SDS011;34475;51.658;5.634;2022-11-11T03:30:00;0.8;;;0.8;;
48679;SDS011;34475;51.658;5.634;2022-11-11T03:31:04;0.8;;;0.8;;
48679;SDS011;34475;51.658;5.634;2022-11-11T03:32:00;0.8;;;0.8;;
48679;SDS011;34475;51.658;5.634;2022-11-11T03:33:00;0.8;;;0.8;;
48679;SDS011;34475;51.658;5.634;2022-11-11T03:34:10;0.8;;;0.8;;
48679;SDS011;34475;51.658;5.634;2022-11-11T03:35:00;0.8;;;0.8;;
48679;SDS011;34475;51.658;5.634;2022-11-11T03:36:00;0.8;;;0.8;;
48679;SDS011;34475;51.658;5.634;2022-11-11T03:37:10;0.8;;;0.8;;
48679;SDS011;34475;51.658;5.634;2022-11-11T03:38:10;0.8;;;0.8;;
48679;SDS011;34475;51.658;5.634;2022-11-11T03:39:00;0.8;;;0.8;;
48679;SDS011;34475;51.658;5.634;2022-11-11T03:40:00;0.8;;;0.8;;
48679;SDS011;34475;51.658;5.634;2022-11-11T03:41:00;0.8;;;0.8;;
48679;SDS011;34475;51.658;5.634;2022-11-11T03:42:00;0.8;;;0.8;;
48679;SDS011;34475;51.658;5.634;2022-11-11T03:43:05;0.8;;;0.8;;
48679;SDS011;34475;51.658;5.634;2022-11-11T03:44:00;0.8;;;0.8;;
48679;SDS011;34475;51.658;5.634;2022-11-11T03:45:00;1.4;;;1.2;;
48679;SDS011;34475;51.658;5.634;2022-11-11T03:46:02;1.4;;;1.2;;
48679;SDS011;34475;51.658;5.634;2022-11-11T03:47:00;1.4;;;1.2;;
48679;SDS011;34475;51.658;5.634;2022-11-11T03:48:00;1.4;;;1.2;;
48679;SDS011;34475;51.658;5.634;2022-11-11T03:49:00;1.4;;;1.2;;
48679;SDS011;34475;51.658;5.634;2022-11-11T03:50:00;1.4;;;1.2;;
48679;SDS011;34475;51.658;5.634;2022-11-11T03:51:00;1.4;;;1.2;;
48679;SDS011;34475;51.658;5.634;2022-11-11T03:52:00;1.4;;;1.2;;
48679;SDS011;34475;51.658;5.634;2022-11-11T03:53:00;1.4;;;1.2;;
48679;SDS011;34475;51.658;5.634;2022-11-11T03:54:00;1.4;;;1.2;;
48679;SDS011;34475;51.658;5.634;2022-11-11T03:55:00;1.4;;;1.2;;
48679;SDS011;34475;51.658;5.634;2022-11-11T03:56:00;1.4;;;1.2;;
48679;SDS011;34475;51.658;5.634;2022-11-11T03:57:10;1.4;;;1.2;;
48679;SDS011;34475;51.658;5.634;2022-11-11T03:58:00;1.4;;;1.2;;
48679;SDS011;34475;51.658;5.634;2022-11-11T03:59:00;1.4;;;1.2;;
48679;SDS011;34475;51.658;5.634;2022-11-11T04:00:00;1.4;;;1.2;;
48679;SDS011;34475;51.658;5.634;2022-11-11T04:01:10;1.4;;;1.2;;
48679;SDS011;34475;51.658;5.634;2022-11-11T04:02:11;1.4;;;1.2;;
48679;SDS011;34475;51.658;5.634;2022-11-11T04:04:10;1.4;;;1.2;;
48679;SDS011;34475;51.658;5.634;2022-11-11T04:05:10;1.1;;;1.1;;
48679;SDS011;34475;51.658;5.634;2022-11-11T04:06:10;1.1;;;1.1;;
48679;SDS011;34475;51.658;5.634;2022-11-11T04:07:10;1.1;;;1.1;;
48679;SDS011;34475;51.658;5.634;2022-11-11T04:08:11;1.1;;;1.1;;
48679;SDS011;34475;51.658;5.634;2022-11-11T04:09:10;1.1;;;1.1;;
48679;SDS011;34475;51.658;5.634;2022-11-11T04:10:10;1.1;;;1.1;;
48679;SDS011;34475;51.658;5.634;2022-11-11T04:11:06;1.1;;;1.1;;
48679;SDS011;34475;51.658;5.634;2022-11-11T04:12:00;1.1;;;1.1;;
48679;SDS011;34475;51.658;5.634;2022-11-11T04:13:10;1.1;;;1.1;;
48679;SDS011;34475;51.658;5.634;2022-11-11T04:14:12;1.1;;;1.1;;
48679;SDS011;34475;51.658;5.634;2022-11-11T04:15:10;1.1;;;1.1;;
48679;SDS011;34475;51.658;5.634;2022-11-11T04:16:07;1.1;;;1.1;;
48679;SDS011;34475;51.658;5.634;2022-11-11T04:17:00;1.1;;;1.1;;
48679;SDS011;34475;51.658;5.634;2022-11-11T04:18:04;1.1;;;1.1;;
48679;SDS011;34475;51.658;5.634;2022-11-11T04:19:10;1.1;;;1.1;;
48679;SDS011;34475;51.658;5.634;2022-11-11T04:20:10;1.1;;;1.1;;
48679;SDS011;34475;51.658;5.634;2022-11-11T04:21:10;1.1;;;1.1;;
48679;SDS011;34475;51.658;5.634;2022-11-11T04:22:00;1.1;;;1.1;;
48679;SDS011;34475;51.658;5.634;2022-11-11T04:23:00;1.1;;;1.1;;
48679;SDS011;34475;51.658;5.634;2022-11-11T04:24:00;1.1;;;1.1;;
48679;SDS011;34475;51.658;5.634;2022-11-11T04:25:10;1.0;;;1.0;;
48679;SDS011;34475;51.658;5.634;2022-11-11T04:26:00;1.0;;;1.0;;
48679;SDS011;34475;51.658;5.634;2022-11-11T04:27:03;1.0;;;1.0;;
48679;SDS011;34475;51.658;5.634;2022-11-11T04:28:10;1.0;;;1.0;;
48679;SDS011;34475;51.658;5.634;2022-11-11T04:29:10;1.0;;;1.0;;
48679;SDS011;34475;51.658;5.634;2022-11-11T04:30:00;1.0;;;1.0;;
48679;SDS011;34475;51.658;5.634;2022-11-11T04:31:00;1.0;;;1.0;;
48679;SDS011;34475;51.658;5.634;2022-11-11T04:32:12;1.0;;;1.0;;
48679;SDS011;34475;51.658;5.634;2022-11-11T04:33:00;1.0;;;1.0;;
48679;SDS011;34475;51.658;5.634;2022-11-11T04:34:00;1.0;;;1.0;;
48679;SDS011;34475;51.658;5.634;2022-11-11T04:35:02;1.0;;;1.0;;
48679;SDS011;34475;51.658;5.634;2022-11-11T04:36:00;1.0;;;1.0;;
48679;SDS011;34475;51.658;5.634;2022-11-11T04:37:00;1.0;;;1.0;;
48679;SDS011;34475;51.658;5.634;2022-11-11T04:38:10;1.0;;;1.0;;
48679;SDS011;34475;51.658;5.634;2022-11-11T04:39:10;1.0;;;1.0;;
48679;SDS011;34475;51.658;5.634;2022-11-11T04:40:10;1.0;;;1.0;;
48679;SDS011;34475;51.658;5.634;2022-11-11T04:41:03;1.0;;;1.0;;
48679;SDS011;34475;51.658;5.634;2022-11-11T04:42:09;1.0;;;1.0;;
48679;SDS011;34475;51.658;5.634;2022-11-11T04:43:00;1.0;;;1.0;;
48679;SDS011;34475;51.658;5.634;2022-11-11T04:44:10;1.0;;;1.0;;
48679;SDS011;34475;51.658;5.634;2022-11-11T04:45:11;0.9;;;0.9;;
48679;SDS011;34475;51.658;5.634;2022-11-11T04:46:00;0.9;;;0.9;;
48679;SDS011;34475;51.658;5.634;2022-11-11T04:47:00;0.9;;;0.9;;
48679;SDS011;34475;51.658;5.634;2022-11-11T04:48:02;0.9;;;0.9;;
48679;SDS011;34475;51.658;5.634;2022-11-11T04:49:00;0.9;;;0.9;;
48679;SDS011;34475;51.658;5.634;2022-11-11T04:50:07;0.9;;;0.9;;
48679;SDS011;34475;51.658;5.634;2022-11-11T04:51:00;0.9;;;0.9;;
48679;SDS011;34475;51.658;5.634;2022-11-11T04:52:10;0.9;;;0.9;;
48679;SDS011;34475;51.658;5.634;2022-11-11T04:53:01;0.9;;;0.9;;
48679;SDS011;34475;51.658;5.634;2022-11-11T04:54:00;0.9;;;0.9;;
48679;SDS011;34475;51.658;5.634;2022-11-11T04:55:10;0.9;;;0.9;;
48679;SDS011;34475;51.658;5.634;2022-11-11T04:56:10;0.9;;;0.9;;
48679;SDS011;34475;51.658;5.634;2022-11-11T04:57:00;0.9;;;0.9;;
48679;SDS011;34475;51.658;5.634;2022-11-11T04:58:00;0.9;;;0.9;;
48679;SDS011;34475;51.658;5.634;2022-11-11T04:59:10;0.9;;;0.9;;
48679;SDS011;34475;51.658;5.634;2022-11-11T05:00:00;0.9;;;0.9;;
48679;SDS011;34475;51.658;5.634;2022-11-11T05:01:00;0.9;;;0.9;;
48679;SDS011;34475;51.658;5.634;2022-11-11T05:02:10;0.9;;;0.9;;
48679;SDS011;34475;51.658;5.634;2022-11-11T05:03:11;0.9;;;0.9;;
48679;SDS011;34475;51.658;5.634;2022-11-11T05:04:00;0.9;;;0.9;;
48679;SDS011;34475;51.658;5.634;2022-11-11T05:05:00;1.0;;;1.0;;
48679;SDS011;34475;51.658;5.634;2022-11-11T05:06:10;1.0;;;1.0;;
48679;SDS011;34475;51.658;5.634;2022-11-11T05:07:10;1.0;;;1.0;;
48679;SDS011;34475;51.658;5.634;2022-11-11T05:08:10;1.0;;;1.0;;
48679;SDS011;34475;51.658;5.634;2022-11-11T05:09:00;1.0;;;1.0;;
48679;SDS011;34475;51.658;5.634;2022-11-11T05:10:00;1.0;;;1.0;;
48679;SDS011;34475;51.658;5.634;2022-11-11T05:11:00;1.0;;;1.0;;
48679;SDS011;34475;51.658;5.634;2022-11-11T05:12:01;1.0;;;1.0;;
48679;SDS011;34475;51.658;5.634;2022-11-11T05:13:10;1.0;;;1.0;;
48679;SDS011;34475;51.658;5.634;2022-11-11T05:14:11;1.0;;;1.0;;
48679;SDS011;34475;51.658;5.634;2022-11-11T05:15:10;1.0;;;1.0;;
48679;SDS011;34475;51.658;5.634;2022-11-11T05:16:12;1.0;;;1.0;;
48679;SDS011;34475;51.658;5.634;2022-11-11T05:17:10;1.0;;;1.0;;
48679;SDS011;34475;51.658;5.634;2022-11-11T05:18:10;1.0;;;1.0;;
48679;SDS011;34475;51.658;5.634;2022-11-11T05:19:10;1.0;;;1.0;;
48679;SDS011;34475;51.658;5.634;2022-11-11T05:20:10;1.0;;;1.0;;
48679;SDS011;34475;51.658;5.634;2022-11-11T05:21:11;1.0;;;1.0;;
48679;SDS011;34475;51.658;5.634;2022-11-11T05:22:06;1.0;;;1.0;;
48679;SDS011;34475;51.658;5.634;2022-11-11T05:23:00;1.0;;;1.0;;
48679;SDS011;34475;51.658;5.634;2022-11-11T05:24:10;1.0;;;1.0;;
48679;SDS011;34475;51.658;5.634;2022-11-11T05:25:11;1.1;;;1.1;;
48679;SDS011;34475;51.658;5.634;2022-11-11T05:26:00;1.1;;;1.1;;
48679;SDS011;34475;51.658;5.634;2022-11-11T05:27:00;1.1;;;1.1;;
48679;SDS011;34475;51.658;5.634;2022-11-11T05:28:00;1.1;;;1.1;;
48679;SDS011;34475;51.658;5.634;2022-11-11T05:29:00;1.1;;;1.1;;
48679;SDS011;34475;51.658;5.634;2022-11-11T05:30:00;1.1;;;1.1;;
48679;SDS011;34475;51.658;5.634;2022-11-11T05:31:00;1.1;;;1.1;;
48679;SDS011;34475;51.658;5.634;2022-11-11T05:32:00;1.1;;;1.1;;
48679;SDS011;34475;51.658;5.634;2022-11-11T05:33:01;1.1;;;1.1;;
48679;SDS011;34475;51.658;5.634;2022-11-11T05:34:00;1.1;;;1.1;;
48679;SDS011;34475;51.658;5.634;2022-11-11T05:35:00;1.1;;;1.1;;
48679;SDS011;34475;51.658;5.634;2022-11-11T05:36:00;1.1;;;1.1;;
48679;SDS011;34475;51.658;5.634;2022-11-11T05:37:00;1.1;;;1.1;;
48679;SDS011;34475;51.658;5.634;2022-11-11T05:38:11;1.1;;;1.1;;
48679;SDS011;34475;51.658;5.634;2022-11-11T05:39:00;1.1;;;1.1;;
48679;SDS011;34475;51.658;5.634;2022-11-11T05:40:00;1.1;;;1.1;;
48679;SDS011;34475;51.658;5.634;2022-11-11T05:41:00;1.1;;;1.1;;
48679;SDS011;34475;51.658;5.634;2022-11-11T05:42:00;1.1;;;1.1;;
48679;SDS011;34475;51.658;5.634;2022-11-11T05:43:00;1.1;;;1.1;;
48679;SDS011;34475;51.658;5.634;2022-11-11T05:44:00;1.1;;;1.1;;
48679;SDS011;34475;51.658;5.634;2022-11-11T05:45:00;1.0;;;1.0;;
48679;SDS011;34475;51.658;5.634;2022-11-11T05:46:00;1.0;;;1.0;;
48679;SDS011;34475;51.658;5.634;2022-11-11T05:47:00;1.0;;;1.0;;
48679;SDS011;34475;51.658;5.634;2022-11-11T05:48:01;1.0;;;1.0;;
48679;SDS011;34475;51.658;5.634;2022-11-11T05:49:10;1.0;;;1.0;;
48679;SDS011;34475;51.658;5.634;2022-11-11T05:50:00;1.0;;;1.0;;
48679;SDS011;34475;51.658;5.634;2022-11-11T05:51:00;1.0;;;1.0;;
48679;SDS011;34475;51.658;5.634;2022-11-11T05:52:00;1.0;;;1.0;;
48679;SDS011;34475;51.658;5.634;2022-11-11T05:53:00;1.0;;;1.0;;
48679;SDS011;34475;51.658;5.634;2022-11-11T05:54:00;1.0;;;1.0;;
48679;SDS011;34475;51.658;5.634;2022-11-11T05:55:00;1.0;;;1.0;;
48679;SDS011;34475;51.658;5.634;2022-11-11T05:56:00;1.0;;;1.0;;
48679;SDS011;34475;51.658;5.634;2022-11-11T05:57:00;1.0;;;1.0;;
48679;SDS011;34475;51.658;5.634;2022-11-11T05:58:00;1.0;;;1.0;;
48679;SDS011;34475;51.658;5.634;2022-11-11T05:59:00;1.0;;;1.0;;
48679;SDS011;34475;51.658;5.634;2022-11-11T06:00:00;1.0;;;1.0;;
48679;SDS011;34475;51.658;5.634;2022-11-11T06:01:00;1.0;;;1.0;;
48679;SDS011;34475;51.658;5.634;2022-11-11T06:02:00;1.0;;;1.0;;
48679;SDS011;34475;51.658;5.634;2022-11-11T06:03:03;1.0;;;1.0;;
48679;SDS011;34475;51.658;5.634;2022-11-11T06:04:00;1.0;;;1.0;;
48679;SDS011;34475;51.658;5.634;2022-11-11T06:05:00;1.3;;;1.3;;
48679;SDS011;34475;51.658;5.634;2022-11-11T06:06:00;1.3;;;1.3;;
48679;SDS011;34475;51.658;5.634;2022-11-11T06:07:00;1.3;;;1.3;;
48679;SDS011;34475;51.658;5.634;2022-11-11T06:08:00;1.3;;;1.3;;
48679;SDS011;34475;51.658;5.634;2022-11-11T06:09:00;1.3;;;1.3;;
48679;SDS011;34475;51.658;5.634;2022-11-11T06:10:10;1.3;;;1.3;;
48679;SDS011;34475;51.658;5.634;2022-11-11T06:11:00;1.3;;;1.3;;
48679;SDS011;34475;51.658;5.634;2022-11-11T06:12:00;1.3;;;1.3;;
48679;SDS011;34475;51.658;5.634;2022-11-11T06:13:01;1.3;;;1.3;;
48679;SDS011;34475;51.658;5.634;2022-11-11T06:14:00;1.3;;;1.3;;
48679;SDS011;34475;51.658;5.634;2022-11-11T06:15:00;1.3;;;1.3;;
48679;SDS011;34475;51.658;5.634;2022-11-11T06:16:00;1.3;;;1.3;;
48679;SDS011;34475;51.658;5.634;2022-11-11T06:17:00;1.3;;;1.3;;
48679;SDS011;34475;51.658;5.634;2022-11-11T06:18:01;1.3;;;1.3;;
48679;SDS011;34475;51.658;5.634;2022-11-11T06:19:02;1.3;;;1.3;;